Time;durP1;ratioP1;P1;durP2;ratioP2;P2;SDS_P1;SDS_P2;PMS_P1;PMS_P2;Temp;Humidity;BMP_temperature;BMP_pressure;BME280_temperature;BME280_humidity;BME280_pressure;Samples;Min_cycle;Max_cycle;Signal;HPM_P1;HPM_P2
2023/05/20 00:00:38;;;;;;;10.02;6.38;;;;;;;;;;2048815;29;20035;-87
2023/05/20 00:01:38;;;;;;;9.05;6.20;;;;;;;;;;2048674;29;20084;-88
2023/05/20 00:02:39;;;;;;;8.77;5.88;;;;;;;;;;2039976;29;20032;-87
2023/05/20 00:03:39;;;;;;;9.68;6.30;;;;;;;;;;2040288;29;20035;-88
2023/05/20 00:04:40;;;;;;;8.52;6.03;;;;;;;;;;2048585;29;20072;-87
2023/05/20 00:05:41;;;;;;;13.80;6.32;;;;;;;;;;2040118;29;20027;-87
2023/05/20 00:06:41;;;;;;;8.70;5.90;;;;;;;;;;2032235;29;20040;-87
2023/05/20 00:07:42;;;;;;;10.30;6.22;;;;;;;;;;2031639;29;20028;-89
2023/05/20 00:08:42;;;;;;;10.32;6.70;;;;;;;;;;2039700;29;20480;-89
2023/05/20 00:09:44;;;;;;;9.25;5.97;;;;;;;;;;2048375;29;20094;-90
2023/05/20 00:10:44;;;;;;;8.02;6.25;;;;;;;;;;2039964;29;20130;-89
2023/05/20 00:11:45;;;;;;;10.65;6.93;;;;;;;;;;2040126;29;20035;-89
2023/05/20 00:12:46;;;;;;;12.65;6.85;;;;;;;;;;2048555;29;20035;-89
2023/05/20 00:13:46;;;;;;;9.00;6.05;;;;;;;;;;2048686;29;20093;-88
2023/05/20 00:14:46;;;;;;;8.85;5.70;;;;;;;;;;2039914;29;20035;-88
2023/05/20 00:15:47;;;;;;;11.13;6.32;;;;;;;;;;2039633;29;20035;-89
2023/05/20 00:16:47;;;;;;;8.77;6.47;;;;;;;;;;2048592;29;20027;-89
2023/05/20 00:17:48;;;;;;;9.05;6.90;;;;;;;;;;2048318;29;20058;-88
2023/05/20 00:18:48;;;;;;;9.48;6.78;;;;;;;;;;2039967;29;20036;-88
2023/05/20 00:19:48;;;;;;;10.98;6.43;;;;;;;;;;2039625;29;20031;-88
2023/05/20 00:20:49;;;;;;;11.85;6.75;;;;;;;;;;2040971;29;20056;-88
2023/05/20 00:21:49;;;;;;;9.18;6.38;;;;;;;;;;2049291;29;20110;-88
2023/05/20 00:22:50;;;;;;;9.38;6.68;;;;;;;;;;2051505;29;20015;-87
2023/05/20 00:23:50;;;;;;;9.98;6.15;;;;;;;;;;2049188;29;20480;-88
2023/05/20 00:24:51;;;;;;;10.02;6.90;;;;;;;;;;2030498;28;20043;-89
2023/05/20 00:25:51;;;;;;;9.18;6.22;;;;;;;;;;2042689;29;20503;-88
2023/05/20 00:26:51;;;;;;;9.10;6.18;;;;;;;;;;2056576;29;20254;-89
2023/05/20 00:27:52;;;;;;;10.02;6.20;;;;;;;;;;2056757;29;20046;-88
2023/05/20 00:28:52;;;;;;;10.80;6.38;;;;;;;;;;2056956;29;20480;-88
2023/05/20 00:29:52;;;;;;;9.93;6.18;;;;;;;;;;2045735;29;20055;-88
2023/05/20 00:30:53;;;;;;;9.30;6.40;;;;;;;;;;2036858;29;20079;-88
2023/05/20 00:31:54;;;;;;;9.30;5.95;;;;;;;;;;2041907;29;20035;-89
2023/05/20 00:32:54;;;;;;;10.35;5.93;;;;;;;;;;2049152;29;20046;-89
2023/05/20 00:33:54;;;;;;;8.95;5.90;;;;;;;;;;2056328;28;20022;-88
2023/05/20 00:34:58;;;;;;;9.25;6.25;;;;;;;;;;2040171;29;20613;-89
2023/05/20 00:35:59;;;;;;;9.00;6.90;;;;;;;;;;2040290;29;20024;-88
2023/05/20 00:36:59;;;;;;;7.97;5.93;;;;;;;;;;2048451;29;20537;-88
2023/05/20 00:38:00;;;;;;;8.60;6.07;;;;;;;;;;2048532;29;20065;-89
2023/05/20 00:39:00;;;;;;;11.15;6.43;;;;;;;;;;2048813;29;20431;-88
2023/05/20 00:40:01;;;;;;;8.70;6.20;;;;;;;;;;2039811;29;20027;-89
2023/05/20 00:41:01;;;;;;;8.50;5.85;;;;;;;;;;2039415;29;20039;-89
2023/05/20 00:42:02;;;;;;;12.00;5.85;;;;;;;;;;2048403;29;20015;-89
2023/05/20 00:43:02;;;;;;;11.57;6.55;;;;;;;;;;2048373;29;20058;-89
2023/05/20 00:44:03;;;;;;;12.02;6.07;;;;;;;;;;2048157;28;20034;-89
2023/05/20 00:45:03;;;;;;;7.60;5.22;;;;;;;;;;2045496;29;20124;-89
2023/05/20 00:46:04;;;;;;;8.90;5.97;;;;;;;;;;2046229;29;20020;-90
2023/05/20 00:47:04;;;;;;;9.68;5.80;;;;;;;;;;2055846;29;20027;-89
2023/05/20 00:48:06;;;;;;;10.10;6.07;;;;;;;;;;2062254;28;20107;-87
2023/05/20 00:49:06;;;;;;;10.32;6.30;;;;;;;;;;2062791;28;20015;-88
2023/05/20 00:50:09;;;;;;;7.65;5.30;;;;;;;;;;2042198;29;20707;-89
2023/05/20 00:51:11;;;;;;;8.57;5.82;;;;;;;;;;2049062;28;20106;-88
2023/05/20 00:52:13;;;;;;;9.60;6.43;;;;;;;;;;2047858;29;20132;-89
2023/05/20 00:53:17;;;;;;;8.90;6.18;;;;;;;;;;2040410;29;20028;-89
2023/05/20 00:54:18;;;;;;;8.88;6.18;;;;;;;;;;2048591;29;20027;-89
2023/05/20 00:55:18;;;;;;;8.07;5.70;;;;;;;;;;2039208;29;20038;-87
2023/05/20 00:56:20;;;;;;;11.13;6.00;;;;;;;;;;2039460;29;20035;-89
2023/05/20 00:57:21;;;;;;;9.50;5.68;;;;;;;;;;2039522;29;20032;-89
2023/05/20 00:58:21;;;;;;;10.23;6.00;;;;;;;;;;2047519;29;20016;-89
2023/05/20 00:59:23;;;;;;;10.25;5.80;;;;;;;;;;2048074;29;20027;-89
2023/05/20 01:00:23;;;;;;;7.90;5.30;;;;;;;;;;2048090;29;20030;-89
2023/05/20 01:01:23;;;;;;;10.90;5.57;;;;;;;;;;2048269;29;20019;-88
2023/05/20 01:02:24;;;;;;;9.25;5.55;;;;;;;;;;2048150;29;20031;-88
2023/05/20 01:03:24;;;;;;;10.02;6.28;;;;;;;;;;2048258;29;20049;-88
2023/05/20 01:04:26;;;;;;;9.30;6.13;;;;;;;;;;2039669;29;20071;-88
2023/05/20 01:05:26;;;;;;;9.05;6.90;;;;;;;;;;2039457;29;20046;-87
2023/05/20 01:06:27;;;;;;;8.75;5.72;;;;;;;;;;2039520;29;20527;-88
2023/05/20 01:07:28;;;;;;;10.32;5.97;;;;;;;;;;2039842;29;20028;-88
2023/05/20 01:08:28;;;;;;;8.93;5.75;;;;;;;;;;2047912;29;20078;-88
2023/05/20 01:09:30;;;;;;;10.90;6.22;;;;;;;;;;2047944;29;20043;-88
2023/05/20 01:10:34;;;;;;;10.45;5.20;;;;;;;;;;2039045;29;20036;-88
2023/05/20 01:11:39;;;;;;;9.95;6.22;;;;;;;;;;2031635;29;20095;-88
2023/05/20 01:12:47;;;;;;;9.43;6.03;;;;;;;;;;2039820;29;20051;-89
2023/05/20 01:13:56;;;;;;;9.95;5.80;;;;;;;;;;2039221;29;20115;-89
2023/05/20 01:15:09;;;;;;;9.60;6.32;;;;;;;;;;2044671;29;20023;-87
2023/05/20 01:16:10;;;;;;;10.82;5.95;;;;;;;;;;2049234;29;20019;-89
2023/05/20 01:17:16;;;;;;;8.95;6.28;;;;;;;;;;2048166;29;20019;-89
2023/05/20 01:18:17;;;;;;;12.30;6.55;;;;;;;;;;2050566;28;20029;-88
2023/05/20 01:19:42;;;;;;;8.93;5.47;;;;;;;;;;2039256;29;20095;-88
2023/05/20 01:20:49;;;;;;;9.90;6.35;;;;;;;;;;2042739;29;20126;-89
2023/05/20 01:21:53;;;;;;;8.98;5.57;;;;;;;;;;2039232;29;20516;-89
2023/05/20 01:22:55;;;;;;;9.13;5.78;;;;;;;;;;2047542;28;20111;-90
2023/05/20 01:23:55;;;;;;;8.50;5.90;;;;;;;;;;2047029;29;20451;-89
2023/05/20 01:24:57;;;;;;;9.73;5.75;;;;;;;;;;2047293;29;20019;-90
2023/05/20 01:25:57;;;;;;;9.82;6.25;;;;;;;;;;2055006;28;20031;-89
2023/05/20 01:26:58;;;;;;;10.05;5.80;;;;;;;;;;2047925;29;20495;-89
2023/05/20 01:27:58;;;;;;;9.90;6.68;;;;;;;;;;2039171;29;20028;-88
2023/05/20 01:29:03;;;;;;;8.43;6.20;;;;;;;;;;2039192;29;20062;-89
2023/05/20 01:30:04;;;;;;;7.30;5.15;;;;;;;;;;2039630;29;20030;-89
2023/05/20 01:31:08;;;;;;;7.30;5.70;;;;;;;;;;2044760;29;20020;-89
2023/05/20 01:32:14;;;;;;;8.45;6.20;;;;;;;;;;2039494;29;20030;-88
2023/05/20 01:33:19;;;;;;;8.30;6.10;;;;;;;;;;2040373;29;20032;-87
2023/05/20 01:34:19;;;;;;;10.50;6.18;;;;;;;;;;2055242;28;20063;-88
2023/05/20 01:35:21;;;;;;;9.80;5.88;;;;;;;;;;2047038;29;20076;-88
2023/05/20 01:36:25;;;;;;;9.63;5.72;;;;;;;;;;2039478;29;20050;-88
2023/05/20 01:37:27;;;;;;;10.30;5.78;;;;;;;;;;2047926;29;20027;-88
2023/05/20 01:38:28;;;;;;;9.32;5.82;;;;;;;;;;2047772;29;20051;-89
2023/05/20 01:39:29;;;;;;;9.75;6.05;;;;;;;;;;2047676;29;20023;-89
2023/05/20 01:40:31;;;;;;;8.35;5.93;;;;;;;;;;2055014;28;20403;-89
2023/05/20 01:41:34;;;;;;;8.75;6.18;;;;;;;;;;2046919;29;20023;-89
2023/05/20 01:42:35;;;;;;;9.68;6.15;;;;;;;;;;2047334;28;20434;-87
2023/05/20 01:43:37;;;;;;;7.57;5.90;;;;;;;;;;2055074;28;20086;-88
2023/05/20 01:44:38;;;;;;;8.35;5.93;;;;;;;;;;2039003;29;20428;-88
2023/05/20 01:45:42;;;;;;;9.05;6.22;;;;;;;;;;2044249;28;20039;-88
2023/05/20 01:46:49;;;;;;;9.45;6.00;;;;;;;;;;2039081;29;20063;-87
2023/05/20 01:47:49;;;;;;;10.40;6.53;;;;;;;;;;2040193;29;20111;-87
2023/05/20 01:48:50;;;;;;;9.15;5.82;;;;;;;;;;2039021;29;20043;-87
2023/05/20 01:49:53;;;;;;;8.38;5.85;;;;;;;;;;2039577;29;20031;-87
2023/05/20 01:50:53;;;;;;;8.00;5.72;;;;;;;;;;2038891;29;20542;-88
2023/05/20 01:51:54;;;;;;;9.55;6.00;;;;;;;;;;2038657;29;20064;-88
2023/05/20 01:52:54;;;;;;;11.45;6.28;;;;;;;;;;2038708;29;20075;-88
2023/05/20 01:53:55;;;;;;;10.38;6.32;;;;;;;;;;2038767;29;20028;-88
2023/05/20 01:54:55;;;;;;;7.90;6.72;;;;;;;;;;2052236;28;20027;-88
2023/05/20 01:55:56;;;;;;;8.75;6.05;;;;;;;;;;2054405;28;20442;-88
2023/05/20 01:56:56;;;;;;;9.98;6.53;;;;;;;;;;2048325;29;20030;-88
2023/05/20 01:57:57;;;;;;;7.95;5.88;;;;;;;;;;2032515;29;20024;-88
2023/05/20 01:58:57;;;;;;;10.93;6.63;;;;;;;;;;2040418;29;20463;-89
2023/05/20 01:59:57;;;;;;;9.98;6.43;;;;;;;;;;2040218;29;20119;-87
2023/05/20 02:00:58;;;;;;;8.13;6.03;;;;;;;;;;2040592;29;20285;-88
2023/05/20 02:01:59;;;;;;;8.57;5.70;;;;;;;;;;2049277;29;20027;-87
2023/05/20 02:02:59;;;;;;;11.00;6.40;;;;;;;;;;2049159;29;20027;-86
2023/05/20 02:04:00;;;;;;;12.30;6.80;;;;;;;;;;2048909;29;20022;-89
2023/05/20 02:05:00;;;;;;;9.30;6.28;;;;;;;;;;2049036;29;20357;-89
2023/05/20 02:06:01;;;;;;;9.82;6.70;;;;;;;;;;2049177;29;20011;-89
2023/05/20 02:07:01;;;;;;;10.07;6.45;;;;;;;;;;2051798;29;20016;-88
2023/05/20 02:08:02;;;;;;;10.13;6.80;;;;;;;;;;2043868;29;20510;-89
2023/05/20 02:09:02;;;;;;;10.15;6.68;;;;;;;;;;2040505;29;20019;-89
2023/05/20 02:10:03;;;;;;;10.65;7.15;;;;;;;;;;2048137;29;20349;-88
2023/05/20 02:11:04;;;;;;;11.30;6.97;;;;;;;;;;2048729;29;20073;-89
2023/05/20 02:12:05;;;;;;;10.43;6.75;;;;;;;;;;2049103;29;20059;-88
2023/05/20 02:13:09;;;;;;;11.57;7.20;;;;;;;;;;1831317;28;10237705;-88
2023/05/20 02:14:10;;;;;;;10.80;6.80;;;;;;;;;;2044086;29;20749;-87
2023/05/20 02:15:10;;;;;;;13.23;7.65;;;;;;;;;;2043141;29;20113;-89
2023/05/20 02:16:10;;;;;;;8.18;5.80;;;;;;;;;;2035493;29;20178;-88
2023/05/20 02:17:15;;;;;;;9.10;6.43;;;;;;;;;;2051640;29;20115;-88
2023/05/20 02:18:17;;;;;;;9.73;6.63;;;;;;;;;;2052658;29;20031;-87
2023/05/20 02:19:22;;;;;;;9.15;6.13;;;;;;;;;;2050150;29;20023;-88
2023/05/20 02:20:22;;;;;;;8.82;5.90;;;;;;;;;;2066469;28;20030;-90
2023/05/20 02:21:24;;;;;;;10.10;6.60;;;;;;;;;;2058188;28;20035;-88
2023/05/20 02:22:25;;;;;;;9.43;6.28;;;;;;;;;;2050949;28;20071;-89
2023/05/20 02:23:25;;;;;;;8.68;6.03;;;;;;;;;;2052243;28;20027;-89
2023/05/20 02:24:25;;;;;;;8.20;5.97;;;;;;;;;;2049916;29;20039;-90
2023/05/20 02:25:26;;;;;;;7.80;5.93;;;;;;;;;;2049606;29;20067;-89
2023/05/20 02:26:27;;;;;;;10.23;6.13;;;;;;;;;;2049936;29;20094;-90
2023/05/20 02:27:28;;;;;;;9.27;6.03;;;;;;;;;;2040567;29;20491;-89
2023/05/20 02:28:28;;;;;;;10.00;6.18;;;;;;;;;;2033001;29;20028;-89
2023/05/20 02:29:29;;;;;;;8.30;5.85;;;;;;;;;;2048976;29;20039;-90
2023/05/20 02:30:29;;;;;;;12.45;7.03;;;;;;;;;;2048449;29;20035;-89
2023/05/20 02:31:30;;;;;;;9.80;5.80;;;;;;;;;;2032823;29;20302;-89
2023/05/20 02:32:32;;;;;;;9.13;6.22;;;;;;;;;;2040441;29;20446;-89
2023/05/20 02:33:32;;;;;;;9.55;5.88;;;;;;;;;;2049246;29;20047;-90
2023/05/20 02:34:33;;;;;;;8.65;5.78;;;;;;;;;;2048772;29;20034;-89
2023/05/20 02:35:38;;;;;;;7.75;5.68;;;;;;;;;;2040373;29;20512;-89
2023/05/20 02:36:38;;;;;;;9.30;6.32;;;;;;;;;;2041023;29;20031;-90
2023/05/20 02:37:39;;;;;;;7.97;6.07;;;;;;;;;;2040908;29;20027;-89
2023/05/20 02:38:40;;;;;;;9.73;6.13;;;;;;;;;;2040481;29;20106;-89
2023/05/20 02:39:40;;;;;;;10.25;6.78;;;;;;;;;;2048975;29;20114;-89
2023/05/20 02:40:43;;;;;;;8.80;6.05;;;;;;;;;;2049121;29;20028;-89
2023/05/20 02:41:44;;;;;;;7.68;5.80;;;;;;;;;;2040632;29;20126;-89
2023/05/20 02:42:45;;;;;;;8.80;5.80;;;;;;;;;;2040795;29;20023;-89
2023/05/20 02:43:46;;;;;;;10.27;5.57;;;;;;;;;;2049169;29;20027;-90
2023/05/20 02:44:46;;;;;;;8.77;6.00;;;;;;;;;;2049467;29;20085;-89
2023/05/20 02:45:46;;;;;;;9.13;5.60;;;;;;;;;;2049355;29;20124;-89
2023/05/20 02:46:47;;;;;;;8.85;5.60;;;;;;;;;;2056009;28;20499;-90
2023/05/20 02:47:47;;;;;;;7.82;5.60;;;;;;;;;;2056655;28;20039;-89
2023/05/20 02:48:47;;;;;;;7.57;5.38;;;;;;;;;;2049379;28;20539;-90
2023/05/20 02:49:49;;;;;;;12.23;6.15;;;;;;;;;;2040708;29;20056;-90
2023/05/20 02:50:50;;;;;;;9.15;6.22;;;;;;;;;;2040482;29;20111;-90
2023/05/20 02:51:52;;;;;;;8.65;5.60;;;;;;;;;;2049120;29;20054;-90
2023/05/20 02:52:52;;;;;;;7.20;5.78;;;;;;;;;;2040616;29;20504;-89
2023/05/20 02:53:52;;;;;;;8.85;5.97;;;;;;;;;;2040605;29;20028;-90
2023/05/20 02:54:53;;;;;;;10.82;6.82;;;;;;;;;;2042236;29;20028;-89
2023/05/20 02:55:54;;;;;;;9.05;5.75;;;;;;;;;;2050780;28;20027;-89
2023/05/20 02:56:54;;;;;;;8.95;5.80;;;;;;;;;;2049061;28;20031;-90
2023/05/20 02:57:55;;;;;;;8.68;5.97;;;;;;;;;;2039615;29;20059;-89
2023/05/20 02:58:55;;;;;;;8.80;6.10;;;;;;;;;;2038806;29;20024;-88
2023/05/20 02:59:56;;;;;;;9.07;6.10;;;;;;;;;;1698180;29;10064691;-90
2023/05/20 03:00:57;;;;;;;9.80;7.05;;;;;;;;;;2041229;29;20240;-90
2023/05/20 03:01:57;;;;;;;10.02;5.93;;;;;;;;;;2048866;29;20035;-90
2023/05/20 03:03:01;;;;;;;9.38;6.30;;;;;;;;;;2049378;29;20027;-89
2023/05/20 03:04:05;;;;;;;8.98;6.18;;;;;;;;;;2049607;29;20031;-89
2023/05/20 03:05:06;;;;;;;12.38;6.32;;;;;;;;;;2039964;29;20113;-88
2023/05/20 03:06:07;;;;;;;10.13;6.38;;;;;;;;;;2040506;29;20525;-89
2023/05/20 03:07:07;;;;;;;12.48;6.13;;;;;;;;;;2040261;29;20115;-89
2023/05/20 03:08:22;;;;;;;8.10;5.97;;;;;;;;;;2041211;29;20468;-88
2023/05/20 03:09:23;;;;;;;11.35;7.45;;;;;;;;;;2049024;29;20100;-88
2023/05/20 03:10:24;;;;;;;10.88;6.18;;;;;;;;;;2048948;29;20483;-88
2023/05/20 03:11:25;;;;;;;7.70;6.20;;;;;;;;;;2049095;29;20114;-87
2023/05/20 03:12:25;;;;;;;9.20;6.15;;;;;;;;;;2057599;29;20041;-88
2023/05/20 03:13:25;;;;;;;10.60;6.38;;;;;;;;;;2050101;28;20020;-88
2023/05/20 03:14:26;;;;;;;11.05;6.45;;;;;;;;;;2042539;29;20020;-87
2023/05/20 03:15:26;;;;;;;10.05;6.47;;;;;;;;;;2049774;29;20058;-87
2023/05/20 03:16:27;;;;;;;10.40;6.50;;;;;;;;;;2058572;28;20030;-87
2023/05/20 03:17:29;;;;;;;11.05;7.40;;;;;;;;;;1685644;28;10460502;-88
2023/05/20 03:18:29;;;;;;;11.35;6.70;;;;;;;;;;2040272;29;20165;-87
2023/05/20 03:19:30;;;;;;;9.68;6.85;;;;;;;;;;2048542;29;20035;-87
2023/05/20 03:20:37;;;;;;;9.90;6.50;;;;;;;;;;2048622;29;20505;-87
2023/05/20 03:21:37;;;;;;;11.10;6.28;;;;;;;;;;2048593;29;20030;-87
2023/05/20 03:22:37;;;;;;;8.48;5.78;;;;;;;;;;2039877;29;20404;-88
2023/05/20 03:23:38;;;;;;;8.57;6.35;;;;;;;;;;2040034;29;20032;-87
2023/05/20 03:24:39;;;;;;;11.20;6.40;;;;;;;;;;2039657;29;20032;-87
2023/05/20 03:25:40;;;;;;;8.77;6.65;;;;;;;;;;2031947;29;20032;-87
2023/05/20 03:26:45;;;;;;;10.30;6.18;;;;;;;;;;2039864;29;20035;-89
2023/05/20 03:27:45;;;;;;;10.43;6.30;;;;;;;;;;2055320;28;20034;-87
2023/05/20 03:28:46;;;;;;;9.65;6.43;;;;;;;;;;2055423;28;20121;-89
2023/05/20 03:29:47;;;;;;;10.73;6.15;;;;;;;;;;2048115;28;20435;-86
2023/05/20 03:30:47;;;;;;;8.18;5.70;;;;;;;;;;1347795;28;10001078;-88
2023/05/20 03:31:47;;;;;;;10.38;6.10;;;;;;;;;;2039836;29;20122;-89
2023/05/20 03:32:48;;;;;;;7.90;5.70;;;;;;;;;;2039555;29;20132;-88
2023/05/20 03:33:48;;;;;;;12.43;6.68;;;;;;;;;;2039441;29;20722;-88
2023/05/20 03:34:49;;;;;;;8.52;6.15;;;;;;;;;;2048129;29;20107;-89
2023/05/20 03:35:49;;;;;;;8.52;5.88;;;;;;;;;;2048159;29;20531;-89
2023/05/20 03:36:50;;;;;;;9.45;7.00;;;;;;;;;;2048481;29;20050;-87
2023/05/20 03:37:52;;;;;;;9.68;6.15;;;;;;;;;;2048353;29;20037;-89
2023/05/20 03:38:52;;;;;;;9.63;6.28;;;;;;;;;;2047987;29;20055;-88
2023/05/20 03:39:53;;;;;;;8.70;5.78;;;;;;;;;;2047932;29;20110;-88
2023/05/20 03:40:53;;;;;;;8.48;6.20;;;;;;;;;;2039462;29;20099;-89
2023/05/20 03:41:53;;;;;;;10.30;6.55;;;;;;;;;;2039995;29;20523;-89
2023/05/20 03:42:54;;;;;;;8.45;5.60;;;;;;;;;;2048201;29;20058;-88
2023/05/20 03:43:55;;;;;;;9.10;6.15;;;;;;;;;;2047820;29;20023;-88
2023/05/20 03:44:56;;;;;;;9.55;5.95;;;;;;;;;;2039475;29;20467;-88
2023/05/20 03:45:56;;;;;;;9.80;6.20;;;;;;;;;;2039606;29;20023;-89
2023/05/20 03:46:56;;;;;;;10.40;6.43;;;;;;;;;;2039532;29;20491;-87
2023/05/20 03:47:57;;;;;;;10.82;5.78;;;;;;;;;;2039301;29;20112;-88
2023/05/20 03:48:57;;;;;;;10.88;6.20;;;;;;;;;;2047903;29;20030;-89
2023/05/20 03:49:57;;;;;;;9.75;5.75;;;;;;;;;;2047987;29;20055;-89
2023/05/20 03:50:58;;;;;;;10.75;5.65;;;;;;;;;;1690541;28;10251939;-87
2023/05/20 03:51:58;;;;;;;8.40;5.93;;;;;;;;;;2053364;29;20208;-88
2023/05/20 03:52:59;;;;;;;10.35;6.05;;;;;;;;;;2047538;29;20585;-89
2023/05/20 03:54:00;;;;;;;11.63;5.70;;;;;;;;;;2039317;29;20019;-89
2023/05/20 03:55:00;;;;;;;9.85;6.40;;;;;;;;;;2048004;29;20023;-89
2023/05/20 03:56:01;;;;;;;8.60;6.20;;;;;;;;;;2039284;29;20050;-90
2023/05/20 03:57:02;;;;;;;8.00;5.82;;;;;;;;;;2031480;29;20035;-89
2023/05/20 03:58:02;;;;;;;10.43;5.68;;;;;;;;;;2039284;29;20472;-90
2023/05/20 03:59:03;;;;;;;10.05;6.15;;;;;;;;;;2031658;29;20012;-89
2023/05/20 04:00:10;;;;;;;7.75;6.13;;;;;;;;;;2031425;29;20481;-89
2023/05/20 04:01:13;;;;;;;9.38;5.82;;;;;;;;;;2039202;29;20015;-89
2023/05/20 04:02:13;;;;;;;9.57;6.40;;;;;;;;;;2039378;29;20102;-89
2023/05/20 04:03:14;;;;;;;8.85;5.80;;;;;;;;;;2047890;29;20137;-89
2023/05/20 04:04:14;;;;;;;8.75;6.18;;;;;;;;;;2047863;29;20114;-89
2023/05/20 04:05:15;;;;;;;11.73;6.28;;;;;;;;;;2049196;29;20099;-87
2023/05/20 04:06:15;;;;;;;8.27;6.47;;;;;;;;;;2048882;29;20031;-88
2023/05/20 04:07:16;;;;;;;8.73;6.20;;;;;;;;;;2049267;29;20023;-88
2023/05/20 04:08:17;;;;;;;9.52;5.88;;;;;;;;;;2039262;29;20629;-88
2023/05/20 04:09:18;;;;;;;9.90;6.63;;;;;;;;;;2039425;29;20070;-89
2023/05/20 04:10:22;;;;;;;8.60;5.93;;;;;;;;;;1695704;28;10104955;-88
2023/05/20 04:11:22;;;;;;;8.63;5.75;;;;;;;;;;2039184;29;20031;-88
2023/05/20 04:12:24;;;;;;;9.35;5.75;;;;;;;;;;2039333;29;20059;-88
2023/05/20 04:13:25;;;;;;;9.85;6.28;;;;;;;;;;2047769;29;20387;-89
2023/05/20 04:14:25;;;;;;;10.48;6.30;;;;;;;;;;2048042;29;20085;-89
2023/05/20 04:15:28;;;;;;;11.45;6.20;;;;;;;;;;2039214;29;20020;-89
2023/05/20 04:16:28;;;;;;;7.97;6.13;;;;;;;;;;2039684;29;20027;-89
2023/05/20 04:17:30;;;;;;;8.57;6.10;;;;;;;;;;2039285;29;20122;-89
2023/05/20 04:18:31;;;;;;;10.98;6.32;;;;;;;;;;2030961;29;20036;-89
2023/05/20 04:19:33;;;;;;;8.63;5.93;;;;;;;;;;2038758;29;20031;-89
2023/05/20 04:20:34;;;;;;;10.65;5.78;;;;;;;;;;2039283;29;20277;-89
2023/05/20 04:21:35;;;;;;;11.10;5.95;;;;;;;;;;2039280;29;20035;-89
2023/05/20 04:22:35;;;;;;;10.32;6.07;;;;;;;;;;2047576;29;20023;-89
2023/05/20 04:23:36;;;;;;;11.27;6.38;;;;;;;;;;2047660;29;20019;-88
2023/05/20 04:24:36;;;;;;;8.60;6.13;;;;;;;;;;2047579;29;20027;-89
2023/05/20 04:25:37;;;;;;;10.05;6.35;;;;;;;;;;2039149;29;20090;-89
2023/05/20 04:26:37;;;;;;;8.85;6.15;;;;;;;;;;2047221;29;20023;-89
2023/05/20 04:27:38;;;;;;;10.35;6.28;;;;;;;;;;2047155;29;20770;-88
2023/05/20 04:28:40;;;;;;;9.50;5.53;;;;;;;;;;1694823;28;10111550;-89
2023/05/20 04:29:44;;;;;;;8.70;5.93;;;;;;;;;;2048231;29;20423;-89
2023/05/20 04:30:45;;;;;;;10.57;6.85;;;;;;;;;;2038993;29;20516;-89
2023/05/20 04:31:45;;;;;;;7.53;5.72;;;;;;;;;;2031383;29;20088;-88
2023/05/20 04:32:47;;;;;;;7.87;5.70;;;;;;;;;;1683815;28;10441691;-88
2023/05/20 04:33:47;;;;;;;6.72;5.07;;;;;;;;;;2047987;29;20138;-89
2023/05/20 04:34:49;;;;;;;8.73;5.38;;;;;;;;;;2047698;29;20023;-89
2023/05/20 04:35:49;;;;;;;8.40;5.65;;;;;;;;;;2039200;29;20035;-88
2023/05/20 04:36:50;;;;;;;8.98;5.38;;;;;;;;;;2046939;29;20031;-89
2023/05/20 04:37:52;;;;;;;7.32;5.68;;;;;;;;;;2054716;28;20110;-89
2023/05/20 04:38:56;;;;;;;9.60;5.72;;;;;;;;;;2038758;29;20032;-89
2023/05/20 04:39:56;;;;;;;8.55;5.75;;;;;;;;;;2038790;29;20456;-89
2023/05/20 04:41:00;;;;;;;6.18;5.18;;;;;;;;;;2038908;29;20070;-89
2023/05/20 04:42:02;;;;;;;8.20;5.50;;;;;;;;;;2039049;29;20447;-89
2023/05/20 04:43:03;;;;;;;8.80;5.53;;;;;;;;;;2047300;28;20042;-89
2023/05/20 04:44:03;;;;;;;6.07;4.90;;;;;;;;;;2058108;28;20019;-84
2023/05/20 04:45:05;;;;;;;7.30;4.95;;;;;;;;;;2049098;29;20472;-89
2023/05/20 04:46:05;;;;;;;7.70;4.78;;;;;;;;;;2039189;29;20026;-89
2023/05/20 04:47:08;;;;;;;6.57;4.85;;;;;;;;;;2039399;29;20051;-89
2023/05/20 04:48:09;;;;;;;7.00;4.75;;;;;;;;;;2039516;29;20047;-87
2023/05/20 04:49:09;;;;;;;7.75;4.57;;;;;;;;;;2048024;29;20027;-89
2023/05/20 04:50:10;;;;;;;6.55;4.55;;;;;;;;;;2039321;29;20424;-90
2023/05/20 04:51:11;;;;;;;7.50;4.57;;;;;;;;;;2031574;29;20056;-88
2023/05/20 04:52:11;;;;;;;7.15;4.78;;;;;;;;;;2039250;29;20022;-89
2023/05/20 04:53:11;;;;;;;7.47;4.85;;;;;;;;;;2047880;29;20030;-87
2023/05/20 04:54:13;;;;;;;6.97;4.88;;;;;;;;;;2047638;29;20078;-88
2023/05/20 04:55:14;;;;;;;6.45;4.63;;;;;;;;;;2047818;29;20034;-87
2023/05/20 04:56:16;;;;;;;6.97;4.85;;;;;;;;;;2039077;29;20464;-87
2023/05/20 04:57:19;;;;;;;6.53;4.28;;;;;;;;;;2039431;29;20456;-87
2023/05/20 04:58:23;;;;;;;6.40;4.10;;;;;;;;;;2039226;29;20083;-89
2023/05/20 04:59:23;;;;;;;5.82;4.68;;;;;;;;;;2039522;29;20027;-88
2023/05/20 05:00:24;;;;;;;5.85;4.55;;;;;;;;;;2047926;29;20070;-88
2023/05/20 05:01:24;;;;;;;5.95;4.32;;;;;;;;;;2039005;29;20023;-88
2023/05/20 05:02:25;;;;;;;6.00;4.57;;;;;;;;;;2031448;29;20130;-88
2023/05/20 05:03:25;;;;;;;7.72;4.75;;;;;;;;;;2048559;29;20034;-88
2023/05/20 05:04:26;;;;;;;6.53;4.38;;;;;;;;;;2055885;28;20074;-88
2023/05/20 05:05:26;;;;;;;11.20;4.85;;;;;;;;;;2039292;29;20024;-88
2023/05/20 05:06:27;;;;;;;6.95;4.88;;;;;;;;;;2039663;29;20032;-88
2023/05/20 05:07:27;;;;;;;7.93;4.40;;;;;;;;;;2039417;29;20424;-87
2023/05/20 05:08:30;;;;;;;6.47;5.00;;;;;;;;;;2039410;29;20061;-87
2023/05/20 05:09:30;;;;;;;6.95;4.82;;;;;;;;;;2047281;28;20027;-89
2023/05/20 05:10:31;;;;;;;11.32;5.00;;;;;;;;;;2054913;28;20429;-89
2023/05/20 05:11:31;;;;;;;7.47;4.88;;;;;;;;;;2048019;29;20101;-88
2023/05/20 05:12:32;;;;;;;7.68;5.53;;;;;;;;;;2047780;29;20027;-89
2023/05/20 05:13:32;;;;;;;6.43;4.80;;;;;;;;;;2047977;29;20166;-87
2023/05/20 05:14:33;;;;;;;9.32;4.57;;;;;;;;;;2048036;29;20027;-89
2023/05/20 05:15:33;;;;;;;7.43;4.63;;;;;;;;;;2048143;29;20051;-88
2023/05/20 05:16:33;;;;;;;5.82;4.20;;;;;;;;;;2048045;29;20045;-89
2023/05/20 05:17:37;;;;;;;7.50;4.88;;;;;;;;;;2047797;29;20089;-89
2023/05/20 05:18:37;;;;;;;8.30;4.82;;;;;;;;;;2047971;29;20111;-88
2023/05/20 05:19:38;;;;;;;8.20;5.05;;;;;;;;;;2031557;29;20024;-89
2023/05/20 05:20:38;;;;;;;7.28;4.95;;;;;;;;;;2032114;29;20444;-89
2023/05/20 05:21:39;;;;;;;6.13;4.28;;;;;;;;;;2056995;28;20027;-89
2023/05/20 05:22:40;;;;;;;6.07;4.82;;;;;;;;;;2057536;28;20034;-89
2023/05/20 05:23:41;;;;;;;5.97;4.88;;;;;;;;;;2049534;29;20011;-89
2023/05/20 05:24:41;;;;;;;6.15;4.53;;;;;;;;;;2056976;29;20031;-89
2023/05/20 05:25:42;;;;;;;5.25;4.60;;;;;;;;;;2047705;28;20051;-90
2023/05/20 05:26:43;;;;;;;6.30;4.80;;;;;;;;;;2042107;29;20456;-89
2023/05/20 05:27:44;;;;;;;6.45;4.47;;;;;;;;;;2047517;29;20341;-89
2023/05/20 05:28:44;;;;;;;5.72;4.47;;;;;;;;;;2039818;29;20032;-89
2023/05/20 05:29:44;;;;;;;5.60;4.22;;;;;;;;;;2033342;29;20100;-93
2023/05/20 05:30:46;;;;;;;5.72;4.45;;;;;;;;;;2034257;29;20067;-93
2023/05/20 05:31:48;;;;;;;7.35;4.78;;;;;;;;;;2042752;29;20035;-96
2023/05/20 05:32:48;;;;;;;5.93;4.70;;;;;;;;;;2037259;29;20248;-96
2023/05/20 05:33:54;;;;;;;9.23;5.03;;;;;;;;;;2045291;29;20104;-94
2023/05/20 05:34:55;;;;;;;7.43;5.22;;;;;;;;;;2052497;29;20042;-95
2023/05/20 05:35:57;;;;;;;6.85;4.75;;;;;;;;;;2057885;28;20023;-92
2023/05/20 05:36:58;;;;;;;7.88;5.20;;;;;;;;;;2049880;28;20012;-93
2023/05/20 05:37:58;;;;;;;6.38;4.60;;;;;;;;;;2050288;28;20008;-94
2023/05/20 05:38:59;;;;;;;7.88;5.28;;;;;;;;;;2060364;28;20027;-93
2023/05/20 05:39:59;;;;;;;6.03;4.25;;;;;;;;;;2058104;28;20020;-92
2023/05/20 05:41:00;;;;;;;7.70;5.63;;;;;;;;;;2050383;28;20127;-92
2023/05/20 05:42:00;;;;;;;7.43;4.93;;;;;;;;;;2050332;28;20028;-93
2023/05/20 05:43:03;;;;;;;9.15;4.90;;;;;;;;;;2050043;28;20093;-93
2023/05/20 05:44:04;;;;;;;8.55;4.93;;;;;;;;;;2058165;29;20019;-92
2023/05/20 05:45:06;;;;;;;8.40;4.97;;;;;;;;;;2056251;29;20029;-90
2023/05/20 05:46:06;;;;;;;5.70;4.57;;;;;;;;;;2055004;29;20081;-91
2023/05/20 05:47:07;;;;;;;6.05;4.97;;;;;;;;;;1704385;28;10245033;-91
2023/05/20 05:48:20;;;;;;;7.28;4.65;;;;;;;;;;2049428;29;20027;-91
2023/05/20 05:49:41;;;;;;;6.63;4.35;;;;;;;;;;2049600;29;20047;-91
2023/05/20 05:51:09;;;;;;;5.15;4.38;;;;;;;;;;2041090;29;20123;-91
2023/05/20 05:52:12;;;;;;;6.78;4.40;;;;;;;;;;2048262;29;20059;-92
2023/05/20 05:53:48;;;;;;;5.22;4.70;;;;;;;;;;2048949;29;20028;-93
2023/05/20 05:54:59;;;;;;;5.62;4.61;;;;;;;;;;2013843;28;11100670;-95
2023/05/20 05:56:00;;;;;;;6.57;5.38;;;;;;;;;;2049222;29;20388;-93
2023/05/20 05:57:01;;;;;;;5.43;4.63;;;;;;;;;;2038386;29;20117;-90
2023/05/20 05:58:01;;;;;;;6.15;4.55;;;;;;;;;;2045573;29;20051;-91
2023/05/20 05:59:02;;;;;;;7.43;4.60;;;;;;;;;;2046271;29;20094;-93
2023/05/20 06:00:03;;;;;;;8.95;4.68;;;;;;;;;;2043492;29;20101;-93
2023/05/20 06:01:04;;;;;;;6.47;4.53;;;;;;;;;;2041645;29;20039;-92
2023/05/20 06:02:05;;;;;;;9.25;4.30;;;;;;;;;;2041717;29;20179;-93
2023/05/20 06:03:09;;;;;;;7.20;4.40;;;;;;;;;;2050387;29;20423;-93
2023/05/20 06:04:10;;;;;;;7.82;4.88;;;;;;;;;;2040569;29;20071;-93
2023/05/20 06:05:10;;;;;;;5.45;4.40;;;;;;;;;;2039982;29;20023;-93
2023/05/20 06:06:11;;;;;;;7.35;4.75;;;;;;;;;;2040393;29;20027;-94
2023/05/20 06:07:11;;;;;;;6.57;4.40;;;;;;;;;;2041248;29;20067;-94